Time;durP1;ratioP1;P1;durP2;ratioP2;P2;SDS_P1;SDS_P2;PMS_P1;PMS_P2;Temp;Humidity;BMP_temperature;BMP_pressure;BME280_temperature;BME280_humidity;BME280_pressure;Samples;Min_cycle;Max_cycle;Signal;HPM_P1;HPM_P2
2022/12/19 00:01:02;;;;;;;10.00;6.25;;;7.00;99.90;;;;;;5031910;28;20033;-83
2022/12/19 00:03:27;;;;;;;8.13;5.55;;;7.40;99.90;;;;;;5031915;28;20025;-84
2022/12/19 00:05:53;;;;;;;8.18;4.65;;;7.60;99.90;;;;;;5031464;28;20044;-84
2022/12/19 00:08:19;;;;;;;7.55;4.63;;;7.50;99.90;;;;;;5014338;28;20095;-83
2022/12/19 00:10:58;;;;;;;4.72;2.78;;;8.20;99.90;;;;;;5031325;28;20100;-83
2022/12/19 00:13:24;;;;;;;6.45;4.97;;;8.60;99.90;;;;;;5033034;28;20029;-83
2022/12/19 00:15:50;;;;;;;5.13;3.15;;;8.50;99.90;;;;;;5034961;28;20102;-83
2022/12/19 00:18:16;;;;;;;4.78;3.40;;;9.00;99.90;;;;;;5035748;28;20029;-83
2022/12/19 00:20:41;;;;;;;5.13;2.50;;;9.20;99.90;;;;;;5035565;28;20025;-83
2022/12/19 00:23:07;;;;;;;6.05;2.70;;;9.10;99.90;;;;;;5035535;28;20029;-83
2022/12/19 00:25:33;;;;;;;3.08;2.17;;;9.20;99.90;;;;;;5034996;28;20026;-83
2022/12/19 00:27:58;;;;;;;3.75;2.10;;;9.60;99.90;;;;;;5035652;28;20109;-83
2022/12/19 00:30:24;;;;;;;4.10;1.98;;;9.60;99.90;;;;;;5035408;28;20034;-83
2022/12/19 00:32:49;;;;;;;7.18;2.95;;;10.10;99.90;;;;;;5035124;28;20026;-83
2022/12/19 00:35:15;;;;;;;3.45;2.50;;;10.10;99.90;;;;;;5035001;28;20037;-84
2022/12/19 00:37:41;;;;;;;3.42;2.25;;;9.60;99.90;;;;;;5035409;28;20067;-84
2022/12/19 00:40:07;;;;;;;4.25;2.40;;;9.60;99.90;;;;;;5034453;28;20396;-83
2022/12/19 00:42:33;;;;;;;2.22;1.70;;;9.60;99.90;;;;;;5035594;28;20017;-84
2022/12/19 00:44:59;;;;;;;6.07;2.70;;;9.60;99.90;;;;;;5034922;28;20033;-83
2022/12/19 00:47:24;;;;;;;5.75;1.73;;;9.50;99.90;;;;;;5034802;28;20104;-83
2022/12/19 00:49:50;;;;;;;3.53;2.08;;;9.60;99.90;;;;;;5035387;28;20033;-83
2022/12/19 00:52:16;;;;;;;4.38;2.30;;;10.10;99.90;;;;;;5034442;28;20040;-84
2022/12/19 00:54:41;;;;;;;3.25;2.33;;;9.70;99.90;;;;;;5034601;28;20068;-83
2022/12/19 00:57:07;;;;;;;3.88;2.05;;;9.70;99.90;;;;;;5016902;28;20038;-84
2022/12/19 00:59:32;;;;;;;1.90;1.52;;;10.00;99.90;;;;;;5034899;28;20075;-83
2022/12/19 01:01:58;;;;;;;2.95;1.40;;;10.50;99.90;;;;;;5034917;28;20493;-83
2022/12/19 01:04:24;;;;;;;2.47;1.73;;;10.50;99.90;;;;;;5034591;28;20041;-83
2022/12/19 01:06:50;;;;;;;4.57;1.33;;;10.40;99.90;;;;;;5035017;28;20065;-83
2022/12/19 01:09:15;;;;;;;2.53;2.15;;;10.80;99.90;;;;;;5034349;28;20025;-83
2022/12/19 01:14:25;;;;;;;3.17;1.38;;;10.80;99.90;;;;;;5034311;28;20048;-83
2022/12/19 01:16:51;;;;;;;3.22;1.40;;;11.00;99.90;;;;;;5034231;28;20046;-83
2022/12/19 01:19:16;;;;;;;2.67;1.40;;;10.80;99.90;;;;;;5034343;28;20033;-84
2022/12/19 01:21:42;;;;;;;3.17;1.23;;;11.00;99.90;;;;;;5034824;28;20385;-83
2022/12/19 01:24:08;;;;;;;2.83;1.33;;;11.00;99.90;;;;;;5033631;28;20036;-83
2022/12/19 01:26:33;;;;;;;2.30;1.50;;;10.80;99.90;;;;;;5033683;28;20044;-84
2022/12/19 01:28:59;;;;;;;2.40;1.23;;;10.90;99.90;;;;;;5034164;28;20116;-83
2022/12/19 01:31:25;;;;;;;4.45;1.60;;;10.90;99.90;;;;;;5034409;28;20029;-83
2022/12/19 01:33:50;;;;;;;2.88;1.40;;;11.00;99.90;;;;;;5016145;28;20166;-84
2022/12/19 01:36:16;;;;;;;2.22;1.17;;;11.10;99.90;;;;;;5034059;28;20033;-84
2022/12/19 01:38:41;;;;;;;2.80;1.25;;;11.10;99.90;;;;;;5033633;28;20038;-84
2022/12/19 01:41:07;;;;;;;2.83;0.95;;;11.00;99.90;;;;;;5034439;28;20022;-83
2022/12/19 01:43:57;;;;;;;4.70;1.20;;;11.00;99.90;;;;;;5033588;28;20029;-84
2022/12/19 01:46:32;;;;;;;2.00;1.25;;;11.00;99.90;;;;;;5034116;28;20021;-83
2022/12/19 01:48:59;;;;;;;2.00;1.30;;;11.00;99.90;;;;;;5016294;28;20533;-83
2022/12/19 01:51:34;;;;;;;2.85;1.55;;;10.90;99.90;;;;;;5034049;28;20025;-83
2022/12/19 01:54:03;;;;;;;2.95;1.40;;;10.90;99.90;;;;;;5032853;28;20032;-84
2022/12/19 01:56:33;;;;;;;4.30;2.70;;;10.90;99.90;;;;;;5033772;28;20108;-84
2022/12/19 01:59:04;;;;;;;2.35;2.00;;;10.80;99.90;;;;;;5034012;28;20030;-84
2022/12/19 02:01:30;;;;;;;1.77;1.23;;;10.90;99.90;;;;;;5033754;28;20033;-84
2022/12/19 02:03:58;;;;;;;2.70;1.40;;;10.80;99.90;;;;;;5033470;28;20022;-84
2022/12/19 02:06:25;;;;;;;2.08;1.40;;;11.10;99.90;;;;;;5033662;28;20410;-84
2022/12/19 02:08:52;;;;;;;3.50;1.35;;;10.70;99.90;;;;;;5015362;28;20112;-83
2022/12/19 02:11:18;;;;;;;2.35;1.40;;;10.80;99.90;;;;;;5033620;28;20113;-84
2022/12/19 02:13:44;;;;;;;3.95;1.58;;;10.70;99.90;;;;;;5033099;28;20029;-84
2022/12/19 02:16:28;;;;;;;2.15;1.63;;;10.70;99.90;;;;;;5015625;28;20128;-84
2022/12/19 02:19:24;;;;;;;3.53;1.35;;;10.70;99.90;;;;;;5033320;28;20025;-84
2022/12/19 02:21:52;;;;;;;3.00;1.73;;;10.70;99.90;;;;;;5033034;28;20017;-83
2022/12/19 02:24:29;;;;;;;1.55;0.90;;;10.50;99.90;;;;;;5032948;28;20083;-83
2022/12/19 02:26:58;;;;;;;2.33;1.40;;;10.70;99.90;;;;;;5032869;28;20022;-83
2022/12/19 02:29:32;;;;;;;2.92;1.60;;;10.70;99.90;;;;;;5033040;28;20040;-83
2022/12/19 02:32:06;;;;;;;4.15;2.05;;;10.50;99.90;;;;;;5033184;28;20021;-84
2022/12/19 02:34:55;;;;;;;3.53;1.45;;;10.30;99.90;;;;;;5032614;28;20041;-84
2022/12/19 02:37:27;;;;;;;3.38;1.90;;;10.20;99.90;;;;;;5032525;28;20049;-84
2022/12/19 02:39:53;;;;;;;3.20;1.52;;;10.10;99.90;;;;;;5032711;28;20071;-83
2022/12/19 02:42:28;;;;;;;4.32;1.75;;;10.20;99.90;;;;;;5033145;28;20033;-84
2022/12/19 02:44:55;;;;;;;5.03;1.73;;;10.10;99.90;;;;;;5033043;28;20022;-84
2022/12/19 02:47:21;;;;;;;2.90;1.67;;;10.10;99.90;;;;;;5032528;28;20528;-84
2022/12/19 02:49:47;;;;;;;2.60;1.50;;;10.30;99.90;;;;;;5032398;28;20029;-84
2022/12/19 02:52:19;;;;;;;3.28;1.80;;;10.20;99.90;;;;;;5032470;28;20049;-83
2022/12/19 02:54:50;;;;;;;3.67;2.05;;;10.30;99.90;;;;;;5032168;28;20397;-83
2022/12/19 02:57:50;;;;;;;2.35;1.80;;;9.90;99.90;;;;;;5032457;28;20025;-83
2022/12/19 03:00:21;;;;;;;3.20;1.73;;;9.90;99.90;;;;;;5032423;28;20117;-83
2022/12/19 03:03:19;;;;;;;3.17;1.83;;;9.80;99.90;;;;;;5032785;28;20029;-84
2022/12/19 03:06:10;;;;;;;2.42;1.80;;;9.70;99.90;;;;;;4971171;28;20052;-83
2022/12/19 03:08:44;;;;;;;2.88;2.00;;;9.90;99.90;;;;;;4971937;28;20057;-84
2022/12/19 03:11:14;;;;;;;4.28;1.77;;;9.90;99.90;;;;;;4971502;28;20392;-83
2022/12/19 03:14:04;;;;;;;2.55;1.73;;;9.70;99.90;;;;;;4971093;28;20499;-83
2022/12/19 03:16:32;;;;;;;1.55;1.30;;;9.80;99.90;;;;;;4971242;28;20062;-83
2022/12/19 03:18:58;;;;;;;2.97;1.90;;;9.80;99.90;;;;;;4959072;28;20115;-83
2022/12/19 03:21:44;;;;;;;4.35;1.50;;;10.00;99.90;;;;;;4951828;28;20458;-84
2022/12/19 03:24:11;;;;;;;3.13;1.88;;;10.00;99.90;;;;;;4951382;28;20546;-83
2022/12/19 03:26:42;;;;;;;3.50;1.60;;;9.90;99.90;;;;;;4952478;28;20566;-83
2022/12/19 03:29:20;;;;;;;2.90;2.00;;;9.90;99.90;;;;;;4951838;28;20416;-83
2022/12/19 03:31:46;;;;;;;2.97;1.60;;;10.00;99.90;;;;;;4952029;28;20034;-83
2022/12/19 03:34:31;;;;;;;2.10;1.30;;;10.00;99.90;;;;;;4951655;29;20038;-83
2022/12/19 03:37:01;;;;;;;4.72;1.70;;;9.90;99.90;;;;;;4951683;28;20518;-83
2022/12/19 03:39:29;;;;;;;2.28;1.65;;;10.00;99.90;;;;;;4951690;28;20031;-83
2022/12/19 03:44:41;;;;;;;1.60;1.50;;;9.90;99.90;;;;;;5032060;28;20051;-84
2022/12/19 03:47:16;;;;;;;3.67;1.70;;;10.10;99.90;;;;;;5031740;28;20100;-84
2022/12/19 03:49:42;;;;;;;3.08;1.40;;;10.00;99.90;;;;;;5030900;28;20029;-83
2022/12/19 03:52:17;;;;;;;1.85;1.40;;;10.10;99.90;;;;;;5031546;28;20032;-83
2022/12/19 03:54:54;;;;;;;4.68;1.50;;;10.10;99.90;;;;;;5032315;28;20401;-84
2022/12/19 03:57:26;;;;;;;1.45;1.20;;;10.10;99.90;;;;;;5031606;28;20056;-84
2022/12/19 04:00:00;;;;;;;1.98;1.50;;;10.00;99.90;;;;;;5031586;28;20040;-83
2022/12/19 04:02:26;;;;;;;1.75;1.40;;;9.90;99.90;;;;;;5031946;28;20026;-83
2022/12/19 04:04:59;;;;;;;2.97;1.80;;;10.20;99.90;;;;;;5031795;28;20105;-83
2022/12/19 04:07:26;;;;;;;2.63;1.50;;;9.90;99.90;;;;;;5031846;28;20041;-83
2022/12/19 04:09:54;;;;;;;1.92;1.02;;;9.90;99.90;;;;;;5031187;28;20390;-83
2022/12/19 04:12:29;;;;;;;3.13;1.20;;;10.30;99.90;;;;;;5031955;28;20100;-83
2022/12/19 04:14:55;;;;;;;2.35;1.30;;;10.40;99.90;;;;;;5031746;28;20025;-84
2022/12/19 04:17:38;;;;;;;2.08;1.30;;;10.20;99.90;;;;;;5013509;28;20203;-83
2022/12/19 04:20:11;;;;;;;3.05;1.40;;;10.10;99.90;;;;;;5031373;28;20033;-84
2022/12/19 04:22:51;;;;;;;1.25;0.70;;;10.10;99.90;;;;;;5031398;28;20036;-83
2022/12/19 04:25:21;;;;;;;1.88;1.30;;;10.60;99.90;;;;;;5031311;28;20053;-83
2022/12/19 04:27:52;;;;;;;1.50;0.98;;;10.60;99.90;;;;;;5031238;28;20025;-83
2022/12/19 04:30:18;;;;;;;1.92;1.08;;;10.50;99.90;;;;;;5031490;28;20556;-83
2022/12/19 04:32:46;;;;;;;2.65;1.10;;;10.80;99.90;;;;;;5031585;28;20025;-83
2022/12/19 04:35:12;;;;;;;2.20;1.25;;;10.80;99.90;;;;;;5019686;28;20038;-84
2022/12/19 04:37:38;;;;;;;1.80;0.80;;;10.90;99.90;;;;;;5030824;28;20061;-83
2022/12/19 04:40:07;;;;;;;2.25;0.82;;;10.90;99.90;;;;;;5031233;28;20037;-83
2022/12/19 04:42:32;;;;;;;4.18;1.30;;;11.00;99.90;;;;;;5031542;28;20374;-84
2022/12/19 04:44:58;;;;;;;3.25;1.27;;;11.00;99.90;;;;;;5031491;28;20036;-83
2022/12/19 04:47:24;;;;;;;5.60;1.70;;;10.70;99.90;;;;;;5031269;28;20482;-83
2022/12/19 04:49:49;;;;;;;1.20;1.10;;;10.80;99.90;;;;;;5030985;28;20482;-84
2022/12/19 04:52:15;;;;;;;3.30;1.08;;;10.80;99.90;;;;;;5030971;28;20366;-84
2022/12/19 04:54:40;;;;;;;2.53;1.40;;;10.60;99.90;;;;;;5031798;28;20037;-83
2022/12/19 04:57:06;;;;;;;1.38;1.10;;;10.40;99.90;;;;;;5030992;28;20029;-84
2022/12/19 04:59:32;;;;;;;1.63;1.17;;;10.50;99.90;;;;;;5031421;28;20026;-84
2022/12/19 05:01:57;;;;;;;1.85;1.13;;;10.40;99.90;;;;;;5034538;28;20489;-83
2022/12/19 05:04:23;;;;;;;1.85;1.00;;;10.40;99.90;;;;;;5034790;28;20029;-84
2022/12/19 05:06:49;;;;;;;1.77;1.08;;;10.30;99.90;;;;;;5034683;28;20076;-83
2022/12/19 05:09:14;;;;;;;2.45;1.20;;;10.20;99.90;;;;;;5034069;28;20033;-84
2022/12/19 05:11:40;;;;;;;1.38;1.08;;;10.10;99.90;;;;;;5034963;28;20049;-84
2022/12/19 05:14:06;;;;;;;1.60;1.33;;;10.10;99.90;;;;;;5033612;28;20193;-83
2022/12/19 05:16:31;;;;;;;1.98;1.50;;;10.10;99.90;;;;;;5032158;28;20096;-84
2022/12/19 05:18:57;;;;;;;2.05;1.40;;;10.00;99.90;;;;;;5022834;28;20176;-84
2022/12/19 05:21:23;;;;;;;2.45;1.45;;;10.00;99.90;;;;;;5014736;28;20026;-83
2022/12/19 05:23:50;;;;;;;2.10;1.35;;;9.90;99.90;;;;;;5032915;28;20095;-84
2022/12/19 05:26:16;;;;;;;1.55;1.20;;;9.90;99.90;;;;;;5034284;28;20140;-84
2022/12/19 05:28:41;;;;;;;1.38;1.20;;;10.00;99.90;;;;;;5034372;28;20096;-83
2022/12/19 05:31:11;;;;;;;3.22;1.50;;;9.90;99.90;;;;;;5033799;28;20502;-84
2022/12/19 05:33:39;;;;;;;2.13;1.40;;;9.90;99.90;;;;;;5033903;28;20560;-84
2022/12/19 05:36:05;;;;;;;2.78;1.10;;;9.90;99.90;;;;;;5022306;28;20441;-84
2022/12/19 05:38:31;;;;;;;1.25;1.15;;;10.00;99.90;;;;;;5014386;28;20025;-83
2022/12/19 05:40:56;;;;;;;1.85;1.00;;;10.10;99.90;;;;;;5014211;28;20037;-84
2022/12/19 05:43:22;;;;;;;1.10;1.00;;;10.20;99.90;;;;;;5014426;28;20495;-84
2022/12/19 05:45:48;;;;;;;1.83;1.08;;;10.30;99.90;;;;;;5013881;28;20034;-83
2022/12/19 05:48:14;;;;;;;1.77;1.23;;;10.30;99.90;;;;;;5014103;28;20026;-84
2022/12/19 05:50:40;;;;;;;2.15;1.08;;;10.30;99.90;;;;;;5015328;28;20034;-84
2022/12/19 05:53:05;;;;;;;1.00;0.90;;;10.70;99.90;;;;;;5016439;28;20029;-83
2022/12/19 05:55:31;;;;;;;2.25;1.40;;;10.30;99.90;;;;;;5033881;28;20490;-84
2022/12/19 05:57:57;;;;;;;1.67;1.20;;;10.40;99.90;;;;;;5034090;28;20057;-84
2022/12/19 06:00:22;;;;;;;2.97;1.23;;;10.10;99.90;;;;;;5032963;28;20024;-83
2022/12/19 06:02:48;;;;;;;2.33;0.95;;;9.90;99.90;;;;;;5033565;28;20406;-84
2022/12/19 06:05:13;;;;;;;2.67;1.50;;;10.00;99.90;;;;;;5033764;28;20453;-84
2022/12/19 06:07:39;;;;;;;1.83;1.10;;;10.10;99.90;;;;;;5033658;28;20540;-83
2022/12/19 06:10:05;;;;;;;2.08;1.15;;;10.10;99.90;;;;;;5033668;28;20087;-83
2022/12/19 06:12:31;;;;;;;2.65;1.30;;;10.20;99.90;;;;;;5014731;28;20054;-84
2022/12/19 06:14:57;;;;;;;1.83;1.20;;;10.00;99.90;;;;;;5013186;28;20443;-83
2022/12/19 06:17:22;;;;;;;2.00;1.10;;;10.20;99.90;;;;;;5013348;28;20048;-84
2022/12/19 06:19:48;;;;;;;3.35;1.88;;;10.00;99.90;;;;;;5013325;28;20479;-84
2022/12/19 06:22:14;;;;;;;2.50;1.40;;;10.30;99.90;;;;;;5013791;28;20029;-83
2022/12/19 06:24:39;;;;;;;1.20;1.00;;;9.80;99.90;;;;;;5013526;28;20517;-83
2022/12/19 06:27:05;;;;;;;0.95;0.90;;;9.90;99.90;;;;;;5013651;28;20366;-84
2022/12/19 06:29:31;;;;;;;2.28;1.25;;;9.90;99.90;;;;;;5013500;28;20021;-83
2022/12/19 06:31:56;;;;;;;3.95;1.20;;;9.90;99.90;;;;;;5013250;28;20022;-83
2022/12/19 06:34:22;;;;;;;1.90;1.30;;;9.80;99.90;;;;;;5026540;28;20440;-83
2022/12/19 06:36:47;;;;;;;2.60;1.10;;;9.90;99.90;;;;;;5032989;28;20052;-83
2022/12/19 06:39:14;;;;;;;3.78;1.83;;;9.80;99.90;;;;;;5032926;28;20079;-84
2022/12/19 06:44:24;;;;;;;3.47;2.55;;;10.00;99.90;;;;;;5033170;28;20515;-83
2022/12/19 06:46:52;;;;;;;3.65;2.55;;;9.40;99.90;;;;;;5032885;28;20053;-83
2022/12/19 06:49:18;;;;;;;3.83;2.85;;;9.20;99.90;;;;;;5032603;28;20025;-84
2022/12/19 06:51:44;;;;;;;6.70;3.83;;;9.20;99.90;;;;;;5032828;28;20022;-84
2022/12/19 06:54:13;;;;;;;4.43;2.60;;;9.00;99.90;;;;;;5032811;28;20075;-83
2022/12/19 06:56:41;;;;;;;4.75;3.72;;;8.90;99.90;;;;;;5032263;28;20035;-84
2022/12/19 06:59:10;;;;;;;7.38;4.45;;;8.70;99.90;;;;;;4998516;28;20022;-84
2022/12/19 07:01:55;;;;;;;5.50;4.13;;;8.70;99.90;;;;;;5032455;28;20049;-84
2022/12/19 07:04:26;;;;;;;5.75;4.25;;;8.70;99.90;;;;;;5031635;28;20025;-83
2022/12/19 07:06:52;;;;;;;4.28;2.67;;;8.70;99.90;;;;;;5032555;28;20108;-84
2022/12/19 07:09:17;;;;;;;2.85;1.83;;;8.80;99.90;;;;;;5032436;28;20057;-83
2022/12/19 07:11:43;;;;;;;1.75;1.40;;;9.10;99.90;;;;;;5020550;28;20026;-84
2022/12/19 07:14:08;;;;;;;2.75;1.50;;;9.30;99.90;;;;;;5012579;28;20447;-83
2022/12/19 07:16:34;;;;;;;3.13;1.50;;;9.40;99.90;;;;;;5012677;28;20514;-83
2022/12/19 07:19:00;;;;;;;1.65;1.20;;;9.60;99.90;;;;;;5031399;28;20394;-83
2022/12/19 07:21:26;;;;;;;1.52;1.40;;;9.90;99.90;;;;;;5032309;28;20029;-83
2022/12/19 07:23:51;;;;;;;2.83;1.73;;;9.60;99.90;;;;;;5013927;28;20072;-83
2022/12/19 07:26:17;;;;;;;4.47;1.70;;;9.70;99.90;;;;;;5031993;28;20040;-83
2022/12/19 07:28:43;;;;;;;2.90;1.75;;;9.80;99.90;;;;;;5017419;28;20112;-83
2022/12/19 07:31:09;;;;;;;3.80;1.58;;;9.90;99.90;;;;;;5031857;28;20061;-82
2022/12/19 07:33:35;;;;;;;3.53;1.52;;;10.00;99.90;;;;;;5032360;28;20025;-82
2022/12/19 07:36:00;;;;;;;5.88;1.70;;;10.20;99.90;;;;;;5031850;28;20045;-83
2022/12/19 07:38:26;;;;;;;3.70;1.48;;;10.20;99.90;;;;;;5027336;28;20045;-82
2022/12/19 07:40:51;;;;;;;2.92;1.40;;;10.50;99.90;;;;;;5030676;28;20086;-82
2022/12/19 07:43:17;;;;;;;1.83;1.65;;;10.40;99.90;;;;;;5032201;28;20401;-82
2022/12/19 07:45:43;;;;;;;2.58;1.98;;;10.50;99.90;;;;;;5031176;28;20067;-83
2022/12/19 07:48:09;;;;;;;4.57;2.05;;;10.60;99.90;;;;;;4998071;28;20033;-83
2022/12/19 07:50:34;;;;;;;5.28;2.10;;;10.60;99.90;;;;;;5031266;28;20036;-81
2022/12/19 07:53:00;;;;;;;3.25;2.15;;;10.70;99.90;;;;;;5031850;28;20382;-81
2022/12/19 07:55:26;;;;;;;2.75;1.88;;;10.80;99.90;;;;;;5030638;28;20045;-81
2022/12/19 07:57:52;;;;;;;1.92;1.38;;;11.00;99.90;;;;;;5031083;28;20025;-81
2022/12/19 08:00:18;;;;;;;3.50;1.58;;;11.40;99.90;;;;;;5018560;28;20034;-81
2022/12/19 08:02:44;;;;;;;2.17;1.20;;;11.90;99.90;;;;;;5029584;28;20109;-81
2022/12/19 08:05:10;;;;;;;6.45;4.63;;;11.80;99.90;;;;;;5023500;28;20034;-81
2022/12/19 08:07:36;;;;;;;8.85;6.20;;;11.50;99.90;;;;;;5019543;28;20100;-81
2022/12/19 08:10:01;;;;;;;9.20;5.50;;;11.00;99.90;;;;;;5030870;28;20510;-81
2022/12/19 08:12:27;;;;;;;9.43;5.90;;;10.60;99.90;;;;;;5031325;28;20106;-81
2022/12/19 08:14:52;;;;;;;7.50;5.80;;;10.50;99.90;;;;;;5031334;28;20572;-83
2022/12/19 08:17:18;;;;;;;5.32;4.35;;;10.80;99.90;;;;;;5012101;28;20129;-81
2022/12/19 08:19:44;;;;;;;9.70;4.88;;;10.60;99.90;;;;;;5031383;28;20041;-80
2022/12/19 08:22:09;;;;;;;5.97;4.50;;;10.60;99.90;;;;;;5010287;28;20148;-82
2022/12/19 08:24:35;;;;;;;3.97;2.10;;;10.70;99.90;;;;;;5030746;28;20033;-81
2022/12/19 08:27:01;;;;;;;3.20;2.03;;;11.00;99.90;;;;;;5027532;28;20033;-80
2022/12/19 08:29:27;;;;;;;16.02;12.07;;;11.20;99.90;;;;;;5031260;28;20044;-81
2022/12/19 08:31:52;;;;;;;118.93;92.20;;;10.70;99.90;;;;;;5031401;28;20076;-81
2022/12/19 08:34:18;;;;;;;21.80;15.65;;;10.70;99.90;;;;;;5035252;28;20038;-78
2022/12/19 08:36:43;;;;;;;22.38;15.93;;;10.60;99.90;;;;;;5035431;28;20505;-78
2022/12/19 08:39:10;;;;;;;16.45;12.10;;;10.90;99.90;;;;;;5023817;28;20032;-81
2022/12/19 08:41:35;;;;;;;3.83;2.72;;;11.00;99.90;;;;;;5055150;28;20048;-83
2022/12/19 08:44:01;;;;;;;5.40;3.30;;;11.70;99.90;;;;;;5052392;28;20072;-80
2022/12/19 08:46:27;;;;;;;6.00;3.42;;;12.20;99.90;;;;;;5055093;28;20029;-80
2022/12/19 08:48:52;;;;;;;3.65;2.42;;;12.00;99.90;;;;;;5045527;28;20021;-80
2022/12/19 08:51:19;;;;;;;3.05;2.08;;;12.20;99.90;;;;;;5034992;28;20045;-80
2022/12/19 08:53:46;;;;;;;3.70;2.00;;;12.50;99.90;;;;;;5034407;28;20104;-81
2022/12/19 08:56:13;;;;;;;2.72;1.50;;;12.70;99.90;;;;;;5034881;28;20121;-81
2022/12/19 08:58:39;;;;;;;3.25;1.52;;;12.90;99.90;;;;;;5035112;28;20025;-80
2022/12/19 09:01:08;;;;;;;4.35;1.40;;;13.10;99.90;;;;;;5034656;28;20026;-81
2022/12/19 09:03:34;;;;;;;4.00;2.10;;;13.10;99.90;;;;;;5034912;28;20053;-81
2022/12/19 09:06:06;;;;;;;4.75;2.53;;;12.90;99.90;;;;;;5032977;28;20029;-81
2022/12/19 09:08:32;;;;;;;3.53;1.90;;;12.70;99.90;;;;;;5033329;28;20027;-83
2022/12/19 09:11:03;;;;;;;3.15;1.67;;;12.70;99.90;;;;;;5034641;28;20030;-82
2022/12/19 09:13:30;;;;;;;4.25;2.50;;;12.90;99.90;;;;;;5034623;28;20032;-82
2022/12/19 09:16:19;;;;;;;3.28;1.40;;;13.00;99.90;;;;;;5034013;28;20037;-81
2022/12/19 09:18:47;;;;;;;3.65;1.55;;;13.10;99.90;;;;;;5034221;28;20033;-81
2022/12/19 09:21:13;;;;;;;2.95;1.17;;;13.00;99.90;;;;;;5026422;28;20042;-82
2022/12/19 09:23:40;;;;;;;1.45;1.20;;;13.20;99.90;;;;;;5014410;28;20036;-81
2022/12/19 09:26:09;;;;;;;2.45;1.00;;;13.40;99.90;;;;;;5014708;28;20049;-81
2022/12/19 09:28:36;;;;;;;1.30;1.20;;;13.50;99.90;;;;;;5014752;28;20033;-81
2022/12/19 09:31:09;;;;;;;2.22;1.20;;;13.60;99.90;;;;;;5014619;28;20026;-82
2022/12/19 09:33:35;;;;;;;1.73;1.30;;;13.80;99.90;;;;;;5021456;28;20033;-81
2022/12/19 09:36:02;;;;;;;2.55;1.30;;;13.80;99.90;;;;;;5034241;28;20147;-82
2022/12/19 09:38:29;;;;;;;2.15;1.13;;;13.90;99.90;;;;;;5034537;28;20535;-81
2022/12/19 09:41:00;;;;;;;8.93;1.70;;;14.00;99.90;;;;;;5034207;28;20168;-81
2022/12/19 09:44:03;;;;;;;3.03;1.27;;;14.10;99.90;;;;;;5034247;28;20102;-81
2022/12/19 09:46:50;;;;;;;5.93;1.45;;;14.40;99.90;;;;;;5033865;28;20080;-81
2022/12/19 09:49:21;;;;;;;3.17;1.30;;;14.50;99.90;;;;;;5034001;28;20053;-82
2022/12/19 09:51:55;;;;;;;1.60;1.25;;;14.60;99.90;;;;;;5033589;28;20485;-81
2022/12/19 09:54:40;;;;;;;3.75;1.50;;;14.80;99.90;;;;;;5014413;28;20048;-81
2022/12/19 09:57:14;;;;;;;1.88;1.35;;;14.90;99.90;;;;;;5013905;28;20029;-81
2022/12/19 09:59:45;;;;;;;3.50;1.15;;;15.10;99.90;;;;;;5013975;28;20064;-81
2022/12/19 10:02:33;;;;;;;6.45;1.90;;;15.50;99.90;;;;;;5014037;28;20482;-81
2022/12/19 10:05:14;;;;;;;2.85;1.30;;;15.10;99.90;;;;;;5014075;28;20049;-81
2022/12/19 10:07:39;;;;;;;6.30;1.50;;;15.60;99.90;;;;;;5014322;28;20509;-81
2022/12/19 10:10:05;;;;;;;2.30;1.38;;;15.50;99.90;;;;;;5013829;28;20034;-81
2022/12/19 10:12:42;;;;;;;3.22;1.20;;;15.90;99.90;;;;;;5013946;28;20022;-81
2022/12/19 10:15:41;;;;;;;2.92;1.23;;;15.90;99.90;;;;;;5013807;28;20276;-81
2022/12/19 10:18:14;;;;;;;2.78;1.25;;;16.30;99.90;;;;;;5013778;28;20046;-81
2022/12/19 10:21:14;;;;;;;3.63;1.45;;;16.30;99.90;;;;;;5013712;28;20022;-81
2022/12/19 10:23:43;;;;;;;2.80;1.60;;;16.50;99.90;;;;;;5003311;28;20033;-81
2022/12/19 10:26:12;;;;;;;2.97;1.48;;;16.50;99.90;;;;;;5013277;28;20054;-81
2022/12/19 10:28:53;;;;;;;2.80;1.40;;;16.90;99.90;;;;;;4996308;28;20025;-81
2022/12/19 10:31:24;;;;;;;3.75;1.48;;;16.30;99.90;;;;;;5013446;28;20058;-81
2022/12/19 10:34:05;;;;;;;4.20;2.05;;;16.30;99.90;;;;;;5022006;28;20421;-81
2022/12/19 10:36:38;;;;;;;1.60;1.10;;;17.60;99.90;;;;;;5032912;28;20037;-81
2022/12/19 10:39:30;;;;;;;7.57;1.77;;;17.20;99.90;;;;;;5015188;28;20049;-81
2022/12/19 10:42:08;;;;;;;2.72;1.35;;;17.20;99.90;;;;;;5033068;28;20068;-81
2022/12/19 10:44:37;;;;;;;2.70;1.60;;;17.50;99.90;;;;;;5033056;28;20025;-81
2022/12/19 10:47:03;;;;;;;4.70;1.40;;;17.00;99.90;;;;;;5032989;28;20029;-81
2022/12/19 10:49:29;;;;;;;2.63;1.08;;;16.60;99.90;;;;;;5032803;28;20466;-81
2022/12/19 10:51:55;;;;;;;2.58;1.13;;;16.80;99.90;;;;;;5032607;28;20503;-81
2022/12/19 10:54:47;;;;;;;3.25;1.42;;;16.80;99.90;;;;;;5033121;28;20022;-81
2022/12/19 10:57:25;;;;;;;1.45;1.08;;;16.40;99.90;;;;;;5021392;28;20400;-81
2022/12/19 11:00:13;;;;;;;2.42;1.17;;;17.20;99.90;;;;;;5032847;28;20075;-81
2022/12/19 11:02:45;;;;;;;6.38;1.45;;;17.60;99.90;;;;;;5032745;28;20401;-81
2022/12/19 11:05:40;;;;;;;4.05;2.05;;;19.80;99.90;;;;;;5032326;28;20053;-81
2022/12/19 11:08:05;;;;;;;2.47;1.15;;;19.90;99.90;;;;;;5032624;28;20038;-81
2022/12/19 11:10:34;;;;;;;1.60;1.02;;;20.00;99.90;;;;;;5033236;28;20056;-81
2022/12/19 11:12:59;;;;;;;2.63;1.10;;;20.10;99.90;;;;;;5032410;28;20031;-82
2022/12/19 11:15:25;;;;;;;1.58;0.95;;;19.70;99.90;;;;;;5032202;28;20116;-82
2022/12/19 11:17:51;;;;;;;2.72;0.93;;;19.90;99.90;;;;;;5014091;28;20056;-82
2022/12/19 11:20:22;;;;;;;3.05;0.93;;;20.40;99.90;;;;;;5033082;28;20030;-82
2022/12/19 11:23:01;;;;;;;2.92;1.10;;;19.70;99.90;;;;;;5032204;28;20116;-82
2022/12/19 11:25:39;;;;;;;1.60;0.95;;;20.00;99.90;;;;;;5032727;28;20033;-81
2022/12/19 11:28:35;;;;;;;1.58;1.00;;;19.20;99.90;;;;;;5032773;28;20065;-82
2022/12/19 11:31:03;;;;;;;3.28;1.25;;;18.50;99.90;;;;;;5032937;28;20052;-82
2022/12/19 11:33:30;;;;;;;2.83;1.17;;;19.10;99.90;;;;;;5031822;28;20099;-81
2022/12/19 11:35:58;;;;;;;1.52;1.20;;;18.70;99.90;;;;;;5032091;28;20129;-82
2022/12/19 11:38:51;;;;;;;1.63;0.90;;;18.80;99.90;;;;;;5032087;28;20033;-81
2022/12/19 11:41:42;;;;;;;2.65;1.15;;;18.40;99.90;;;;;;5032118;28;20529;-81
2022/12/19 11:44:25;;;;;;;3.70;1.20;;;18.70;99.90;;;;;;5024896;28;20045;-82
2022/12/19 11:47:04;;;;;;;1.65;0.90;;;19.00;99.90;;;;;;5031875;28;20116;-82
2022/12/19 11:50:08;;;;;;;2.75;1.20;;;18.00;99.90;;;;;;5032106;28;20026;-82
2022/12/19 11:52:37;;;;;;;2.65;1.05;;;17.70;99.90;;;;;;5014495;28;20064;-82
2022/12/19 11:55:25;;;;;;;2.95;1.38;;;17.90;99.90;;;;;;5032179;28;20033;-82
2022/12/19 11:57:52;;;;;;;3.00;1.35;;;17.60;99.90;;;;;;5031929;28;20044;-82
2022/12/19 12:00:20;;;;;;;2.10;1.08;;;17.50;99.90;;;;;;5032009;28;20068;-81
2022/12/19 12:03:17;;;;;;;2.00;1.20;;;17.90;99.90;;;;;;5031766;28;20041;-82
2022/12/19 12:05:47;;;;;;;2.55;1.30;;;18.90;99.90;;;;;;5031875;28;20033;-82
2022/12/19 12:08:43;;;;;;;3.05;1.40;;;19.00;99.90;;;;;;5031900;28;20485;-82
2022/12/19 12:11:23;;;;;;;4.00;1.30;;;19.20;99.90;;;;;;5035745;28;20049;-81
2022/12/19 12:14:13;;;;;;;0.73;0.70;;;19.30;99.90;;;;;;5035784;28;20126;-82
2022/12/19 12:16:59;;;;;;;3.92;1.50;;;17.40;99.90;;;;;;5033118;28;20189;-81
2022/12/19 12:19:33;;;;;;;2.65;1.02;;;17.60;99.90;;;;;;5035759;28;20034;-81
2022/12/19 12:22:08;;;;;;;1.58;1.00;;;17.70;99.90;;;;;;5036071;28;20028;-82
2022/12/19 12:24:45;;;;;;;3.85;1.10;;;17.80;99.90;;;;;;5035641;28;20100;-82
2022/12/19 12:27:53;;;;;;;3.05;1.20;;;17.50;99.90;;;;;;5035466;28;20466;-81
2022/12/19 12:30:21;;;;;;;3.45;1.15;;;18.80;99.90;;;;;;4935922;29;20535;-82
2022/12/19 12:33:10;;;;;;;3.67;1.10;;;19.60;99.90;;;;;;4936036;29;20048;-82
2022/12/19 12:35:38;;;;;;;2.33;1.20;;;19.30;99.90;;;;;;4935837;29;20036;-82
2022/12/19 12:38:32;;;;;;;3.17;1.88;;;20.60;99.90;;;;;;4936048;29;20586;-82
2022/12/19 12:42:02;;;;;;;3.47;1.85;;;21.10;99.90;;;;;;4935966;29;20078;-82
2022/12/19 12:44:10;;;;;;;2.42;1.13;;;20.80;99.90;;;;;;4935796;29;20114;-82
2022/12/19 12:46:43;;;;;;;4.55;1.70;;;21.40;99.90;;;;;;4935513;28;20043;-82
2022/12/19 12:49:35;;;;;;;2.08;1.30;;;20.60;99.90;;;;;;4936088;29;20035;-82
2022/12/19 12:52:05;;;;;;;1.10;1.00;;;19.50;99.90;;;;;;4897347;29;20041;-81
2022/12/19 12:54:36;;;;;;;2.85;1.25;;;19.20;99.90;;;;;;4897175;29;20053;-81
2022/12/19 12:57:02;;;;;;;2.55;1.20;;;19.40;99.90;;;;;;4897782;29;20033;-82
2022/12/19 12:59:29;;;;;;;1.95;0.88;;;19.70;99.90;;;;;;4897390;29;20076;-82
2022/12/19 13:02:00;;;;;;;3.90;1.38;;;19.00;99.90;;;;;;4897729;29;20021;-82
2022/12/19 13:04:31;;;;;;;1.95;1.10;;;19.10;99.90;;;;;;4897405;29;20029;-81
2022/12/19 13:07:14;;;;;;;1.10;0.80;;;19.80;99.90;;;;;;4932905;29;20040;-81
2022/12/19 13:09:40;;;;;;;3.58;1.48;;;20.70;99.90;;;;;;4935604;29;20032;-82
2022/12/19 13:15:17;;;;;;;6.45;1.40;;;21.00;99.90;;;;;;4934443;28;20157;-82
2022/12/19 13:17:49;;;;;;;2.85;1.13;;;23.00;99.90;;;;;;4935381;29;20135;-82